sensor_id;sensor_type;location;lat;lon;timestamp;P1;durP1;ratioP1;P2;durP2;ratioP2
2522;SDS011;1272;53.332;9.860;2023-02-26T00:01:28;2.80;;;1.80;;
2522;SDS011;1272;53.332;9.860;2023-02-26T00:03:56;1.80;;;1.70;;
2522;SDS011;1272;53.332;9.860;2023-02-26T00:06:24;2.13;;;1.60;;
2522;SDS011;1272;53.332;9.860;2023-02-26T00:08:51;4.10;;;2.17;;
2522;SDS011;1272;53.332;9.860;2023-02-26T00:11:17;1.77;;;1.60;;
2522;SDS011;1272;53.332;9.860;2023-02-26T00:13:45;1.40;;;1.30;;
2522;SDS011;1272;53.332;9.860;2023-02-26T00:16:23;4.00;;;1.30;;
2522;SDS011;1272;53.332;9.860;2023-02-26T00:18:58;1.93;;;1.53;;
2522;SDS011;1272;53.332;9.860;2023-02-26T00:21:26;2.87;;;1.67;;
2522;SDS011;1272;53.332;9.860;2023-02-26T00:23:52;5.57;;;1.40;;
2522;SDS011;1272;53.332;9.860;2023-02-26T00:26:19;3.87;;;1.50;;
2522;SDS011;1272;53.332;9.860;2023-02-26T00:28:46;1.40;;;1.20;;
2522;SDS011;1272;53.332;9.860;2023-02-26T00:31:13;2.33;;;1.57;;
2522;SDS011;1272;53.332;9.860;2023-02-26T00:33:40;1.57;;;1.40;;
2522;SDS011;1272;53.332;9.860;2023-02-26T00:38:53;2.20;;;1.10;;
2522;SDS011;1272;53.332;9.860;2023-02-26T00:41:31;1.40;;;1.30;;
2522;SDS011;1272;53.332;9.860;2023-02-26T00:43:57;2.87;;;1.20;;
2522;SDS011;1272;53.332;9.860;2023-02-26T00:49:12;2.47;;;1.50;;
2522;SDS011;1272;53.332;9.860;2023-02-26T00:51:52;1.43;;;1.33;;
2522;SDS011;1272;53.332;9.860;2023-02-26T00:54:30;2.73;;;1.47;;
2522;SDS011;1272;53.332;9.860;2023-02-26T00:56:56;2.63;;;1.47;;
2522;SDS011;1272;53.332;9.860;2023-02-26T00:59:23;1.50;;;1.30;;
2522;SDS011;1272;53.332;9.860;2023-02-26T01:01:50;1.30;;;1.20;;
2522;SDS011;1272;53.332;9.860;2023-02-26T01:04:17;2.90;;;1.50;;
2522;SDS011;1272;53.332;9.860;2023-02-26T01:06:46;1.67;;;1.30;;
2522;SDS011;1272;53.332;9.860;2023-02-26T01:09:16;1.30;;;1.20;;
2522;SDS011;1272;53.332;9.860;2023-02-26T01:11:45;2.20;;;1.07;;
2522;SDS011;1272;53.332;9.860;2023-02-26T01:14:11;1.17;;;1.13;;
2522;SDS011;1272;53.332;9.860;2023-02-26T01:16:41;2.10;;;1.10;;
2522;SDS011;1272;53.332;9.860;2023-02-26T01:19:19;3.43;;;1.40;;
2522;SDS011;1272;53.332;9.860;2023-02-26T01:22:14;4.07;;;1.20;;
2522;SDS011;1272;53.332;9.860;2023-02-26T01:24:45;1.17;;;1.17;;
2522;SDS011;1272;53.332;9.860;2023-02-26T01:27:13;1.17;;;1.17;;
2522;SDS011;1272;53.332;9.860;2023-02-26T01:29:38;1.70;;;1.20;;
2522;SDS011;1272;53.332;9.860;2023-02-26T01:32:10;5.63;;;1.80;;
2522;SDS011;1272;53.332;9.860;2023-02-26T01:34:47;2.30;;;1.37;;
2522;SDS011;1272;53.332;9.860;2023-02-26T01:43:27;1.90;;;1.30;;
2522;SDS011;1272;53.332;9.860;2023-02-26T01:46:07;3.63;;;1.30;;
2522;SDS011;1272;53.332;9.860;2023-02-26T01:48:51;1.10;;;1.00;;
2522;SDS011;1272;53.332;9.860;2023-02-26T01:51:41;2.20;;;1.30;;
2522;SDS011;1272;53.332;9.860;2023-02-26T01:54:09;2.17;;;1.10;;
2522;SDS011;1272;53.332;9.860;2023-02-26T01:56:36;1.33;;;1.33;;
2522;SDS011;1272;53.332;9.860;2023-02-26T01:59:03;4.23;;;1.53;;
2522;SDS011;1272;53.332;9.860;2023-02-26T02:01:31;3.17;;;1.50;;
2522;SDS011;1272;53.332;9.860;2023-02-26T02:03:57;1.23;;;1.13;;
2522;SDS011;1272;53.332;9.860;2023-02-26T02:06:25;2.23;;;1.30;;
2522;SDS011;1272;53.332;9.860;2023-02-26T02:08:53;2.80;;;1.37;;
2522;SDS011;1272;53.332;9.860;2023-02-26T02:11:20;3.27;;;1.03;;
2522;SDS011;1272;53.332;9.860;2023-02-26T02:22:11;2.80;;;1.30;;
2522;SDS011;1272;53.332;9.860;2023-02-26T02:25:07;2.03;;;1.00;;
2522;SDS011;1272;53.332;9.860;2023-02-26T02:27:46;6.17;;;1.37;;
2522;SDS011;1272;53.332;9.860;2023-02-26T02:33:05;2.50;;;1.30;;
2522;SDS011;1272;53.332;9.860;2023-02-26T02:35:43;3.70;;;1.13;;
2522;SDS011;1272;53.332;9.860;2023-02-26T02:38:25;1.00;;;1.00;;
2522;SDS011;1272;53.332;9.860;2023-02-26T02:41:07;4.10;;;1.37;;
2522;SDS011;1272;53.332;9.860;2023-02-26T02:43:38;1.40;;;1.30;;
2522;SDS011;1272;53.332;9.860;2023-02-26T02:46:10;2.07;;;1.30;;
2522;SDS011;1272;53.332;9.860;2023-02-26T02:51:40;6.37;;;1.40;;
2522;SDS011;1272;53.332;9.860;2023-02-26T02:54:25;3.80;;;1.37;;
2522;SDS011;1272;53.332;9.860;2023-02-26T02:56:57;5.63;;;2.03;;
2522;SDS011;1272;53.332;9.860;2023-02-26T02:59:29;3.80;;;1.10;;
2522;SDS011;1272;53.332;9.860;2023-02-26T03:02:10;1.90;;;1.57;;
2522;SDS011;1272;53.332;9.860;2023-02-26T03:04:44;2.27;;;1.40;;
2522;SDS011;1272;53.332;9.860;2023-02-26T03:07:10;1.70;;;1.60;;
2522;SDS011;1272;53.332;9.860;2023-02-26T03:09:36;1.53;;;1.23;;
2522;SDS011;1272;53.332;9.860;2023-02-26T03:12:02;2.80;;;1.73;;
2522;SDS011;1272;53.332;9.860;2023-02-26T03:14:27;2.00;;;1.33;;
2522;SDS011;1272;53.332;9.860;2023-02-26T03:22:06;1.93;;;1.70;;
2522;SDS011;1272;53.332;9.860;2023-02-26T03:24:49;3.33;;;1.53;;
2522;SDS011;1272;53.332;9.860;2023-02-26T03:29:51;3.53;;;1.30;;
2522;SDS011;1272;53.332;9.860;2023-02-26T03:32:42;5.23;;;1.60;;
2522;SDS011;1272;53.332;9.860;2023-02-26T03:35:43;4.23;;;1.60;;
2522;SDS011;1272;53.332;9.860;2023-02-26T03:38:15;3.73;;;1.70;;
2522;SDS011;1272;53.332;9.860;2023-02-26T03:40:59;1.40;;;1.30;;
2522;SDS011;1272;53.332;9.860;2023-02-26T03:43:30;4.53;;;1.87;;
2522;SDS011;1272;53.332;9.860;2023-02-26T03:46:14;2.43;;;1.40;;
2522;SDS011;1272;53.332;9.860;2023-02-26T03:48:44;2.07;;;1.67;;
2522;SDS011;1272;53.332;9.860;2023-02-26T03:51:15;2.60;;;1.40;;
2522;SDS011;1272;53.332;9.860;2023-02-26T03:53:48;1.47;;;1.37;;
2522;SDS011;1272;53.332;9.860;2023-02-26T03:56:26;2.00;;;1.30;;
2522;SDS011;1272;53.332;9.860;2023-02-26T03:58:55;1.47;;;1.33;;
2522;SDS011;1272;53.332;9.860;2023-02-26T04:01:23;3.00;;;1.20;;
2522;SDS011;1272;53.332;9.860;2023-02-26T04:03:54;4.70;;;1.70;;
2522;SDS011;1272;53.332;9.860;2023-02-26T04:06:25;6.03;;;1.83;;
2522;SDS011;1272;53.332;9.860;2023-02-26T04:08:52;2.73;;;1.57;;
2522;SDS011;1272;53.332;9.860;2023-02-26T04:11:19;3.00;;;1.73;;
2522;SDS011;1272;53.332;9.860;2023-02-26T04:13:46;1.30;;;1.20;;
2522;SDS011;1272;53.332;9.860;2023-02-26T04:16:13;3.20;;;1.30;;
2522;SDS011;1272;53.332;9.860;2023-02-26T04:18:39;1.93;;;1.80;;
2522;SDS011;1272;53.332;9.860;2023-02-26T04:21:06;4.30;;;1.57;;
2522;SDS011;1272;53.332;9.860;2023-02-26T04:23:39;2.40;;;1.40;;
2522;SDS011;1272;53.332;9.860;2023-02-26T04:26:04;8.50;;;1.40;;
2522;SDS011;1272;53.332;9.860;2023-02-26T04:28:30;1.30;;;1.00;;
2522;SDS011;1272;53.332;9.860;2023-02-26T04:30:56;2.70;;;1.60;;
2522;SDS011;1272;53.332;9.860;2023-02-26T04:33:21;4.40;;;1.30;;
2522;SDS011;1272;53.332;9.860;2023-02-26T04:35:47;3.00;;;1.10;;
2522;SDS011;1272;53.332;9.860;2023-02-26T04:38:13;4.03;;;1.30;;
2522;SDS011;1272;53.332;9.860;2023-02-26T04:40:39;1.37;;;1.27;;
2522;SDS011;1272;53.332;9.860;2023-02-26T04:43:04;7.53;;;1.70;;
2522;SDS011;1272;53.332;9.860;2023-02-26T04:45:30;3.63;;;1.07;;
2522;SDS011;1272;53.332;9.860;2023-02-26T04:47:56;2.50;;;1.50;;
2522;SDS011;1272;53.332;9.860;2023-02-26T04:50:21;3.03;;;1.50;;
2522;SDS011;1272;53.332;9.860;2023-02-26T04:52:47;1.40;;;1.17;;
2522;SDS011;1272;53.332;9.860;2023-02-26T04:55:13;2.40;;;1.20;;
2522;SDS011;1272;53.332;9.860;2023-02-26T04:57:42;2.00;;;1.30;;
2522;SDS011;1272;53.332;9.860;2023-02-26T05:00:08;1.37;;;1.27;;
2522;SDS011;1272;53.332;9.860;2023-02-26T05:02:35;3.10;;;1.20;;
2522;SDS011;1272;53.332;9.860;2023-02-26T05:05:00;2.80;;;1.10;;
2522;SDS011;1272;53.332;9.860;2023-02-26T05:07:26;1.50;;;1.33;;
2522;SDS011;1272;53.332;9.860;2023-02-26T05:09:52;1.90;;;1.10;;
2522;SDS011;1272;53.332;9.860;2023-02-26T05:12:17;2.43;;;1.90;;
2522;SDS011;1272;53.332;9.860;2023-02-26T05:14:43;4.20;;;1.23;;
2522;SDS011;1272;53.332;9.860;2023-02-26T05:17:09;3.13;;;1.40;;
2522;SDS011;1272;53.332;9.860;2023-02-26T05:19:35;1.10;;;1.03;;
2522;SDS011;1272;53.332;9.860;2023-02-26T05:22:01;7.40;;;1.20;;
2522;SDS011;1272;53.332;9.860;2023-02-26T05:24:27;3.53;;;1.60;;
2522;SDS011;1272;53.332;9.860;2023-02-26T05:26:52;3.33;;;1.67;;
2522;SDS011;1272;53.332;9.860;2023-02-26T05:29:18;6.20;;;1.83;;
2522;SDS011;1272;53.332;9.860;2023-02-26T05:31:44;1.97;;;1.77;;
2522;SDS011;1272;53.332;9.860;2023-02-26T05:34:09;2.87;;;1.90;;
2522;SDS011;1272;53.332;9.860;2023-02-26T05:36:35;4.10;;;2.40;;
2522;SDS011;1272;53.332;9.860;2023-02-26T05:39:01;3.43;;;1.60;;
2522;SDS011;1272;53.332;9.860;2023-02-26T05:41:26;3.73;;;1.73;;
2522;SDS011;1272;53.332;9.860;2023-02-26T05:43:52;3.83;;;1.50;;
2522;SDS011;1272;53.332;9.860;2023-02-26T05:46:18;2.60;;;1.50;;
2522;SDS011;1272;53.332;9.860;2023-02-26T05:48:43;2.03;;;1.50;;
2522;SDS011;1272;53.332;9.860;2023-02-26T05:51:09;1.93;;;1.30;;
2522;SDS011;1272;53.332;9.860;2023-02-26T05:53:35;1.90;;;1.80;;
2522;SDS011;1272;53.332;9.860;2023-02-26T05:56:00;5.90;;;3.33;;
2522;SDS011;1272;53.332;9.860;2023-02-26T05:58:26;5.20;;;3.97;;
2522;SDS011;1272;53.332;9.860;2023-02-26T06:00:52;8.03;;;5.90;;
2522;SDS011;1272;53.332;9.860;2023-02-26T06:03:18;6.13;;;4.60;;
2522;SDS011;1272;53.332;9.860;2023-02-26T06:05:43;5.53;;;3.17;;
2522;SDS011;1272;53.332;9.860;2023-02-26T06:08:09;2.70;;;2.50;;
2522;SDS011;1272;53.332;9.860;2023-02-26T06:10:36;8.93;;;2.40;;
2522;SDS011;1272;53.332;9.860;2023-02-26T06:13:02;5.20;;;3.77;;
2522;SDS011;1272;53.332;9.860;2023-02-26T06:15:28;5.67;;;3.30;;
2522;SDS011;1272;53.332;9.860;2023-02-26T06:17:53;4.87;;;2.97;;
2522;SDS011;1272;53.332;9.860;2023-02-26T06:20:19;5.47;;;2.70;;
2522;SDS011;1272;53.332;9.860;2023-02-26T06:22:45;2.90;;;2.27;;
2522;SDS011;1272;53.332;9.860;2023-02-26T06:25:11;2.27;;;2.07;;
2522;SDS011;1272;53.332;9.860;2023-02-26T06:27:36;1.83;;;1.70;;
2522;SDS011;1272;53.332;9.860;2023-02-26T06:30:03;6.73;;;2.03;;
2522;SDS011;1272;53.332;9.860;2023-02-26T06:32:29;1.47;;;1.37;;
2522;SDS011;1272;53.332;9.860;2023-02-26T06:34:55;1.57;;;1.47;;
2522;SDS011;1272;53.332;9.860;2023-02-26T06:37:20;1.53;;;1.20;;
2522;SDS011;1272;53.332;9.860;2023-02-26T06:39:46;3.97;;;1.60;;
2522;SDS011;1272;53.332;9.860;2023-02-26T06:42:11;1.33;;;1.17;;
2522;SDS011;1272;53.332;9.860;2023-02-26T06:44:37;6.43;;;1.30;;
2522;SDS011;1272;53.332;9.860;2023-02-26T06:47:03;1.50;;;1.40;;
2522;SDS011;1272;53.332;9.860;2023-02-26T06:49:29;5.30;;;1.53;;
2522;SDS011;1272;53.332;9.860;2023-02-26T06:51:54;1.23;;;1.13;;
2522;SDS011;1272;53.332;9.860;2023-02-26T06:54:20;3.00;;;1.30;;
2522;SDS011;1272;53.332;9.860;2023-02-26T06:56:46;1.27;;;1.17;;
2522;SDS011;1272;53.332;9.860;2023-02-26T06:59:12;1.83;;;1.20;;
2522;SDS011;1272;53.332;9.860;2023-02-26T07:01:39;6.70;;;1.40;;
2522;SDS011;1272;53.332;9.860;2023-02-26T07:04:05;1.23;;;1.20;;
2522;SDS011;1272;53.332;9.860;2023-02-26T07:06:31;2.07;;;1.60;;
2522;SDS011;1272;53.332;9.860;2023-02-26T07:08:56;1.57;;;1.30;;
2522;SDS011;1272;53.332;9.860;2023-02-26T07:11:22;1.90;;;1.00;;
2522;SDS011;1272;53.332;9.860;2023-02-26T07:13:52;5.20;;;1.47;;
2522;SDS011;1272;53.332;9.860;2023-02-26T07:16:17;1.53;;;1.33;;
2522;SDS011;1272;53.332;9.860;2023-02-26T07:18:43;4.50;;;1.43;;
2522;SDS011;1272;53.332;9.860;2023-02-26T07:21:09;3.43;;;2.03;;
2522;SDS011;1272;53.332;9.860;2023-02-26T07:23:34;1.67;;;1.37;;
2522;SDS011;1272;53.332;9.860;2023-02-26T07:26:00;1.93;;;1.53;;
2522;SDS011;1272;53.332;9.860;2023-02-26T07:28:26;7.07;;;2.27;;
2522;SDS011;1272;53.332;9.860;2023-02-26T07:30:55;7.60;;;2.40;;
2522;SDS011;1272;53.332;9.860;2023-02-26T07:33:22;3.30;;;2.33;;
2522;SDS011;1272;53.332;9.860;2023-02-26T07:35:49;7.10;;;2.40;;
2522;SDS011;1272;53.332;9.860;2023-02-26T07:38:15;2.70;;;2.50;;
2522;SDS011;1272;53.332;9.860;2023-02-26T07:40:40;2.67;;;1.60;;
2522;SDS011;1272;53.332;9.860;2023-02-26T07:43:06;5.10;;;2.80;;
2522;SDS011;1272;53.332;9.860;2023-02-26T07:45:32;2.20;;;1.97;;
2522;SDS011;1272;53.332;9.860;2023-02-26T07:47:57;1.57;;;1.43;;
2522;SDS011;1272;53.332;9.860;2023-02-26T07:50:24;9.30;;;1.87;;
2522;SDS011;1272;53.332;9.860;2023-02-26T07:52:52;2.53;;;1.27;;
2522;SDS011;1272;53.332;9.860;2023-02-26T07:55:18;1.70;;;1.50;;
2522;SDS011;1272;53.332;9.860;2023-02-26T07:57:44;2.53;;;1.60;;
2522;SDS011;1272;53.332;9.860;2023-02-26T08:00:10;1.87;;;1.70;;
2522;SDS011;1272;53.332;9.860;2023-02-26T08:02:39;3.00;;;2.70;;
2522;SDS011;1272;53.332;9.860;2023-02-26T08:05:05;1.80;;;1.70;;
2522;SDS011;1272;53.332;9.860;2023-02-26T08:07:31;4.00;;;1.27;;
2522;SDS011;1272;53.332;9.860;2023-02-26T08:09:57;2.70;;;1.60;;
2522;SDS011;1272;53.332;9.860;2023-02-26T08:12:23;2.60;;;1.20;;
2522;SDS011;1272;53.332;9.860;2023-02-26T08:14:48;2.07;;;1.40;;
2522;SDS011;1272;53.332;9.860;2023-02-26T08:17:14;2.57;;;1.20;;
2522;SDS011;1272;53.332;9.860;2023-02-26T08:19:40;1.23;;;1.10;;
2522;SDS011;1272;53.332;9.860;2023-02-26T08:22:05;1.93;;;1.50;;
2522;SDS011;1272;53.332;9.860;2023-02-26T08:24:31;1.43;;;0.90;;
2522;SDS011;1272;53.332;9.860;2023-02-26T08:26:57;1.90;;;1.70;;
2522;SDS011;1272;53.332;9.860;2023-02-26T08:29:23;4.30;;;1.40;;
2522;SDS011;1272;53.332;9.860;2023-02-26T08:31:49;1.10;;;1.10;;
2522;SDS011;1272;53.332;9.860;2023-02-26T08:34:15;1.37;;;1.20;;
2522;SDS011;1272;53.332;9.860;2023-02-26T08:36:41;1.67;;;1.40;;
2522;SDS011;1272;53.332;9.860;2023-02-26T08:39:07;2.47;;;1.60;;
2522;SDS011;1272;53.332;9.860;2023-02-26T08:41:32;2.57;;;1.53;;
2522;SDS011;1272;53.332;9.860;2023-02-26T08:44:00;1.67;;;1.43;;
2522;SDS011;1272;53.332;9.860;2023-02-26T08:46:26;2.90;;;1.40;;
2522;SDS011;1272;53.332;9.860;2023-02-26T08:48:52;2.00;;;1.90;;
2522;SDS011;1272;53.332;9.860;2023-02-26T08:51:18;2.50;;;1.70;;
2522;SDS011;1272;53.332;9.860;2023-02-26T08:53:47;3.13;;;2.00;;
2522;SDS011;1272;53.332;9.860;2023-02-26T08:56:14;2.80;;;1.70;;
2522;SDS011;1272;53.332;9.860;2023-02-26T08:58:40;2.07;;;1.37;;
2522;SDS011;1272;53.332;9.860;2023-02-26T09:01:06;1.83;;;1.47;;
2522;SDS011;1272;53.332;9.860;2023-02-26T09:03:32;2.20;;;2.10;;
2522;SDS011;1272;53.332;9.860;2023-02-26T09:05:58;3.70;;;1.70;;
2522;SDS011;1272;53.332;9.860;2023-02-26T09:08:23;1.80;;;1.70;;
2522;SDS011;1272;53.332;9.860;2023-02-26T09:10:49;1.73;;;1.63;;
2522;SDS011;1272;53.332;9.860;2023-02-26T09:13:17;2.10;;;1.90;;
2522;SDS011;1272;53.332;9.860;2023-02-26T09:15:43;2.50;;;1.87;;
2522;SDS011;1272;53.332;9.860;2023-02-26T09:18:09;2.03;;;1.30;;
2522;SDS011;1272;53.332;9.860;2023-02-26T09:20:40;12.63;;;4.73;;
2522;SDS011;1272;53.332;9.860;2023-02-26T09:23:07;3.83;;;1.47;;
2522;SDS011;1272;53.332;9.860;2023-02-26T09:25:33;3.40;;;2.30;;
2522;SDS011;1272;53.332;9.860;2023-02-26T09:27:58;1.63;;;1.50;;
2522;SDS011;1272;53.332;9.860;2023-02-26T09:30:24;1.97;;;1.87;;
2522;SDS011;1272;53.332;9.860;2023-02-26T09:32:50;2.10;;;1.30;;
2522;SDS011;1272;53.332;9.860;2023-02-26T09:35:15;5.20;;;2.37;;
2522;SDS011;1272;53.332;9.860;2023-02-26T09:37:41;4.67;;;1.60;;
2522;SDS011;1272;53.332;9.860;2023-02-26T09:40:07;2.10;;;1.90;;
2522;SDS011;1272;53.332;9.860;2023-02-26T09:43:05;2.67;;;2.10;;
2522;SDS011;1272;53.332;9.860;2023-02-26T09:45:36;1.90;;;0.97;;
2522;SDS011;1272;53.332;9.860;2023-02-26T09:48:04;1.67;;;1.57;;
2522;SDS011;1272;53.332;9.860;2023-02-26T09:50:36;4.00;;;1.30;;
2522;SDS011;1272;53.332;9.860;2023-02-26T09:55:52;1.20;;;1.10;;
2522;SDS011;1272;53.332;9.860;2023-02-26T09:58:27;3.10;;;1.10;;
2522;SDS011;1272;53.332;9.860;2023-02-26T10:01:42;1.10;;;1.00;;
2522;SDS011;1272;53.332;9.860;2023-02-26T10:06:45;1.17;;;1.07;;
2522;SDS011;1272;53.332;9.860;2023-02-26T10:11:59;3.33;;;1.30;;
2522;SDS011;1272;53.332;9.860;2023-02-26T10:14:39;1.20;;;1.10;;
2522;SDS011;1272;53.332;9.860;2023-02-26T10:17:22;2.63;;;0.90;;
2522;SDS011;1272;53.332;9.860;2023-02-26T10:19:58;1.27;;;1.17;;
2522;SDS011;1272;53.332;9.860;2023-02-26T10:22:35;2.87;;;2.33;;
2522;SDS011;1272;53.332;9.860;2023-02-26T10:30:31;2.73;;;1.40;;
2522;SDS011;1272;53.332;9.860;2023-02-26T10:33:06;1.67;;;1.40;;
2522;SDS011;1272;53.332;9.860;2023-02-26T10:35:54;1.37;;;1.27;;
2522;SDS011;1272;53.332;9.860;2023-02-26T10:38:27;5.13;;;1.13;;
2522;SDS011;1272;53.332;9.860;2023-02-26T10:40:59;2.70;;;1.20;;
2522;SDS011;1272;53.332;9.860;2023-02-26T10:43:39;2.63;;;1.50;;
2522;SDS011;1272;53.332;9.860;2023-02-26T10:49:01;2.47;;;1.40;;
2522;SDS011;1272;53.332;9.860;2023-02-26T10:51:46;1.80;;;1.20;;
2522;SDS011;1272;53.332;9.860;2023-02-26T10:56:45;1.90;;;1.10;;
2522;SDS011;1272;53.332;9.860;2023-02-26T10:59:11;5.20;;;1.20;;
2522;SDS011;1272;53.332;9.860;2023-02-26T11:01:37;1.33;;;1.23;;
2522;SDS011;1272;53.332;9.860;2023-02-26T11:06:59;3.97;;;1.50;;
2522;SDS011;1272;53.332;9.860;2023-02-26T11:09:33;4.00;;;1.93;;
2522;SDS011;1272;53.332;9.860;2023-02-26T11:12:11;1.80;;;1.20;;
2522;SDS011;1272;53.332;9.860;2023-02-26T11:14:42;0.80;;;0.80;;
2522;SDS011;1272;53.332;9.860;2023-02-26T11:17:11;1.20;;;1.10;;
2522;SDS011;1272;53.332;9.860;2023-02-26T11:19:39;2.47;;;1.20;;
2522;SDS011;1272;53.332;9.860;2023-02-26T11:22:11;1.50;;;1.40;;
2522;SDS011;1272;53.332;9.860;2023-02-26T11:24:40;2.10;;;1.17;;
2522;SDS011;1272;53.332;9.860;2023-02-26T11:27:13;3.73;;;1.40;;
2522;SDS011;1272;53.332;9.860;2023-02-26T11:29:46;3.80;;;1.10;;
2522;SDS011;1272;53.332;9.860;2023-02-26T11:32:17;1.80;;;1.10;;
2522;SDS011;1272;53.332;9.860;2023-02-26T11:34:46;1.40;;;1.30;;
2522;SDS011;1272;53.332;9.860;2023-02-26T11:37:16;1.00;;;1.00;;
2522;SDS011;1272;53.332;9.860;2023-02-26T11:40:03;2.70;;;1.33;;
2522;SDS011;1272;53.332;9.860;2023-02-26T11:42:37;3.23;;;0.83;;
2522;SDS011;1272;53.332;9.860;2023-02-26T11:45:12;3.33;;;1.13;;
2522;SDS011;1272;53.332;9.860;2023-02-26T11:47:40;1.30;;;1.07;;
2522;SDS011;1272;53.332;9.860;2023-02-26T11:50:13;1.30;;;1.20;;
2522;SDS011;1272;53.332;9.860;2023-02-26T11:52:43;3.17;;;1.27;;
2522;SDS011;1272;53.332;9.860;2023-02-26T11:55:18;0.80;;;0.80;;
2522;SDS011;1272;53.332;9.860;2023-02-26T11:57:56;1.33;;;1.23;;
2522;SDS011;1272;53.332;9.860;2023-02-26T12:00:28;2.43;;;2.20;;
2522;SDS011;1272;53.332;9.860;2023-02-26T12:03:05;1.50;;;1.40;;
2522;SDS011;1272;53.332;9.860;2023-02-26T12:05:36;3.83;;;2.17;;
2522;SDS011;1272;53.332;9.860;2023-02-26T12:08:03;1.27;;;1.17;;
2522;SDS011;1272;53.332;9.860;2023-02-26T12:10:54;1.43;;;1.33;;
2522;SDS011;1272;53.332;9.860;2023-02-26T12:24:26;3.73;;;1.07;;
2522;SDS011;1272;53.332;9.860;2023-02-26T12:30:02;0.80;;;0.80;;
2522;SDS011;1272;53.332;9.860;2023-02-26T12:32:58;2.30;;;1.10;;
2522;SDS011;1272;53.332;9.860;2023-02-26T12:35:46;2.20;;;0.90;;
2522;SDS011;1272;53.332;9.860;2023-02-26T12:49:17;4.50;;;1.40;;
2522;SDS011;1272;53.332;9.860;2023-02-26T12:52:02;1.30;;;1.20;;
2522;SDS011;1272;53.332;9.860;2023-02-26T12:57:29;1.53;;;1.20;;
2522;SDS011;1272;53.332;9.860;2023-02-26T13:03:03;2.10;;;1.20;;
2522;SDS011;1272;53.332;9.860;2023-02-26T13:19:46;1.67;;;1.57;;
2522;SDS011;1272;53.332;9.860;2023-02-26T13:21:58;3.07;;;1.20;;
2522;SDS011;1272;53.332;9.860;2023-02-26T13:24:34;1.10;;;1.10;;
2522;SDS011;1272;53.332;9.860;2023-02-26T13:27:03;3.57;;;1.57;;
2522;SDS011;1272;53.332;9.860;2023-02-26T13:29:36;1.33;;;1.20;;
2522;SDS011;1272;53.332;9.860;2023-02-26T13:32:22;1.10;;;1.00;;
2522;SDS011;1272;53.332;9.860;2023-02-26T13:39:58;1.53;;;0.97;;
2522;SDS011;1272;53.332;9.860;2023-02-26T13:42:49;2.93;;;1.10;;
2522;SDS011;1272;53.332;9.860;2023-02-26T13:48:44;4.40;;;1.27;;
2522;SDS011;1272;53.332;9.860;2023-02-26T13:51:48;1.53;;;1.23;;
2522;SDS011;1272;53.332;9.860;2023-02-26T13:56:48;3.37;;;1.70;;
2522;SDS011;1272;53.332;9.860;2023-02-26T13:59:25;1.30;;;1.20;;
2522;SDS011;1272;53.332;9.860;2023-02-26T14:02:29;1.70;;;1.57;;
2522;SDS011;1272;53.332;9.860;2023-02-26T14:04:59;2.13;;;1.20;;
2522;SDS011;1272;53.332;9.860;2023-02-26T14:10:36;3.80;;;2.70;;
2522;SDS011;1272;53.332;9.860;2023-02-26T14:13:18;5.00;;;3.27;;
2522;SDS011;1272;53.332;9.860;2023-02-26T14:15:51;3.00;;;2.30;;
2522;SDS011;1272;53.332;9.860;2023-02-26T14:24:03;2.90;;;1.73;;
2522;SDS011;1272;53.332;9.860;2023-02-26T14:26:36;7.90;;;1.80;;
2522;SDS011;1272;53.332;9.860;2023-02-26T14:31:49;1.33;;;1.20;;
2522;SDS011;1272;53.332;9.860;2023-02-26T14:34:21;2.00;;;1.13;;
2522;SDS011;1272;53.332;9.860;2023-02-26T14:36:55;2.17;;;1.57;;
2522;SDS011;1272;53.332;9.860;2023-02-26T14:39:27;5.47;;;1.50;;
2522;SDS011;1272;53.332;9.860;2023-02-26T14:41:58;1.50;;;1.40;;
2522;SDS011;1272;53.332;9.860;2023-02-26T14:44:32;1.87;;;1.50;;
2522;SDS011;1272;53.332;9.860;2023-02-26T14:47:01;1.77;;;1.67;;
2522;SDS011;1272;53.332;9.860;2023-02-26T14:49:30;3.00;;;1.80;;
2522;SDS011;1272;53.332;9.860;2023-02-26T14:57:13;6.10;;;2.30;;
2522;SDS011;1272;53.332;9.860;2023-02-26T14:59:52;1.70;;;1.60;;
2522;SDS011;1272;53.332;9.860;2023-02-26T15:02:43;1.87;;;1.70;;
2522;SDS011;1272;53.332;9.860;2023-02-26T15:08:23;1.67;;;1.57;;
2522;SDS011;1272;53.332;9.860;2023-02-26T15:20:03;3.73;;;1.93;;
2522;SDS011;1272;53.332;9.860;2023-02-26T15:24:59;5.50;;;1.33;;
2522;SDS011;1272;53.332;9.860;2023-02-26T15:27:25;4.17;;;3.43;;
2522;SDS011;1272;53.332;9.860;2023-02-26T15:29:55;4.90;;;2.80;;
2522;SDS011;1272;53.332;9.860;2023-02-26T15:32:27;22.67;;;1.97;;
2522;SDS011;1272;53.332;9.860;2023-02-26T15:34:58;2.03;;;1.53;;
2522;SDS011;1272;53.332;9.860;2023-02-26T15:37:26;2.50;;;1.80;;
2522;SDS011;1272;53.332;9.860;2023-02-26T15:39:57;3.80;;;1.77;;
2522;SDS011;1272;53.332;9.860;2023-02-26T15:42:28;2.87;;;1.83;;
2522;SDS011;1272;53.332;9.860;2023-02-26T15:44:57;1.83;;;1.60;;
2522;SDS011;1272;53.332;9.860;2023-02-26T15:47:26;2.90;;;1.60;;
2522;SDS011;1272;53.332;9.860;2023-02-26T15:49:53;5.10;;;1.83;;
2522;SDS011;1272;53.332;9.860;2023-02-26T15:52:21;2.50;;;1.73;;
2522;SDS011;1272;53.332;9.860;2023-02-26T15:54:51;3.57;;;1.57;;
2522;SDS011;1272;53.332;9.860;2023-02-26T15:57:21;4.43;;;2.03;;
2522;SDS011;1272;53.332;9.860;2023-02-26T15:59:49;6.17;;;2.30;;
2522;SDS011;1272;53.332;9.860;2023-02-26T16:02:21;3.73;;;1.70;;
2522;SDS011;1272;53.332;9.860;2023-02-26T16:04:50;2.03;;;1.67;;
2522;SDS011;1272;53.332;9.860;2023-02-26T16:07:17;2.53;;;1.77;;
2522;SDS011;1272;53.332;9.860;2023-02-26T16:09:45;4.53;;;2.10;;
2522;SDS011;1272;53.332;9.860;2023-02-26T16:12:33;1.50;;;1.40;;
2522;SDS011;1272;53.332;9.860;2023-02-26T16:15:13;2.87;;;1.40;;
2522;SDS011;1272;53.332;9.860;2023-02-26T16:17:47;3.60;;;1.97;;
2522;SDS011;1272;53.332;9.860;2023-02-26T16:20:19;3.13;;;1.63;;
2522;SDS011;1272;53.332;9.860;2023-02-26T16:22:47;5.60;;;1.83;;
2522;SDS011;1272;53.332;9.860;2023-02-26T16:28:02;2.10;;;1.93;;
2522;SDS011;1272;53.332;9.860;2023-02-26T16:30:35;3.83;;;1.60;;
2522;SDS011;1272;53.332;9.860;2023-02-26T16:33:02;2.17;;;1.53;;
2522;SDS011;1272;53.332;9.860;2023-02-26T16:35:35;1.93;;;1.70;;
2522;SDS011;1272;53.332;9.860;2023-02-26T16:38:10;2.10;;;1.63;;
2522;SDS011;1272;53.332;9.860;2023-02-26T16:40:43;6.70;;;1.80;;
2522;SDS011;1272;53.332;9.860;2023-02-26T16:46:16;4.17;;;1.53;;
2522;SDS011;1272;53.332;9.860;2023-02-26T16:48:54;1.83;;;1.70;;
2522;SDS011;1272;53.332;9.860;2023-02-26T16:51:26;1.90;;;1.80;;
2522;SDS011;1272;53.332;9.860;2023-02-26T16:53:57;3.17;;;2.40;;
2522;SDS011;1272;53.332;9.860;2023-02-26T16:56:31;7.50;;;2.83;;
2522;SDS011;1272;53.332;9.860;2023-02-26T16:59:04;3.80;;;3.10;;
2522;SDS011;1272;53.332;9.860;2023-02-26T17:01:56;8.60;;;3.70;;
2522;SDS011;1272;53.332;9.860;2023-02-26T17:04:27;4.63;;;3.00;;
2522;SDS011;1272;53.332;9.860;2023-02-26T17:06:56;6.87;;;3.80;;
2522;SDS011;1272;53.332;9.860;2023-02-26T17:09:29;6.93;;;3.90;;
2522;SDS011;1272;53.332;9.860;2023-02-26T17:14:43;5.67;;;4.00;;
2522;SDS011;1272;53.332;9.860;2023-02-26T17:17:11;6.47;;;3.17;;
2522;SDS011;1272;53.332;9.860;2023-02-26T17:19:38;4.10;;;3.80;;
2522;SDS011;1272;53.332;9.860;2023-02-26T17:22:04;4.30;;;3.17;;
2522;SDS011;1272;53.332;9.860;2023-02-26T17:24:36;5.20;;;3.47;;
2522;SDS011;1272;53.332;9.860;2023-02-26T17:27:10;3.37;;;3.07;;
2522;SDS011;1272;53.332;9.860;2023-02-26T17:29:47;4.53;;;3.20;;
2522;SDS011;1272;53.332;9.860;2023-02-26T17:32:19;5.27;;;3.83;;
2522;SDS011;1272;53.332;9.860;2023-02-26T17:34:46;6.80;;;4.57;;
2522;SDS011;1272;53.332;9.860;2023-02-26T17:37:13;6.60;;;4.60;;
2522;SDS011;1272;53.332;9.860;2023-02-26T17:39:39;3.87;;;3.57;;
2522;SDS011;1272;53.332;9.860;2023-02-26T17:42:09;4.73;;;3.53;;
2522;SDS011;1272;53.332;9.860;2023-02-26T17:44:35;4.80;;;3.57;;
2522;SDS011;1272;53.332;9.860;2023-02-26T17:47:01;6.73;;;4.93;;
2522;SDS011;1272;53.332;9.860;2023-02-26T17:49:29;6.13;;;5.30;;
2522;SDS011;1272;53.332;9.860;2023-02-26T17:51:58;5.53;;;5.00;;
2522;SDS011;1272;53.332;9.860;2023-02-26T17:54:23;6.90;;;4.63;;
2522;SDS011;1272;53.332;9.860;2023-02-26T17:56:49;10.03;;;5.67;;
2522;SDS011;1272;53.332;9.860;2023-02-26T17:59:16;10.77;;;6.10;;
2522;SDS011;1272;53.332;9.860;2023-02-26T18:01:42;7.77;;;6.27;;
2522;SDS011;1272;53.332;9.860;2023-02-26T18:04:08;8.93;;;7.07;;
2522;SDS011;1272;53.332;9.860;2023-02-26T18:06:35;8.37;;;6.17;;